createdAt,value
2023-05-18T00:04:29.846Z,99612.19
2023-05-18T00:09:35.025Z,99605.25
2023-05-18T00:14:38.544Z,99608.72
2023-05-18T00:19:46.921Z,99620.94
2023-05-18T00:24:50.634Z,99615.75
2023-05-18T00:29:54.221Z,99626.19
2023-05-18T00:34:59.144Z,99622.75
2023-05-18T00:40:02.830Z,99612.41
2023-05-18T00:45:09.395Z,99622.78
2023-05-18T00:50:14.597Z,99626.28
2023-05-18T00:55:18.349Z,99627.16
2023-05-18T01:00:22.941Z,99625.44
2023-05-18T01:05:28.034Z,99623.69
2023-05-18T01:10:35.464Z,99628.91
2023-05-18T01:15:40.670Z,99625.47
2023-05-18T01:20:50.873Z,99625.47
2023-05-18T01:26:15.536Z,99637.59
2023-05-18T01:31:19.225Z,99620.25
2023-05-18T01:36:22.834Z,99622.88
2023-05-18T01:41:29.789Z,99627.16
2023-05-18T01:46:37.930Z,99618.50
2023-05-18T01:51:46.117Z,99624.56
2023-05-18T01:56:54.490Z,99628.88
2023-05-18T02:02:01.311Z,99629.75
2023-05-18T02:07:05.078Z,99626.25
2023-05-18T02:12:10.310Z,99619.25
2023-05-18T02:17:13.850Z,99630.50
2023-05-18T02:22:17.462Z,99632.22
2023-05-18T02:27:22.439Z,99631.34
2023-05-18T02:32:25.978Z,99630.44
2023-05-18T02:37:29.808Z,99629.50
2023-05-18T02:42:34.763Z,99644.25
2023-05-18T02:47:38.646Z,99648.50
2023-05-18T02:52:42.313Z,99638.81
2023-05-18T02:57:48.364Z,99644.72
2023-05-18T03:02:52.068Z,99640.16
2023-05-18T03:07:55.941Z,99643.31
2023-05-18T03:13:02.320Z,99638.16
2023-05-18T03:18:06.155Z,99635.63
2023-05-18T03:23:09.860Z,99625.00
2023-05-18T03:28:14.783Z,99625.50
2023-05-18T03:33:18.292Z,99624.78
2023-05-18T03:38:21.877Z,99624.84
2023-05-18T03:43:26.857Z,99623.38
2023-05-18T03:48:31.460Z,99632.06
2023-05-18T03:53:36.398Z,99631.00
2023-05-18T03:58:42.560Z,99630.34
2023-05-18T04:03:46.243Z,99637.91
2023-05-18T04:08:50.405Z,99641.69
2023-05-18T04:13:55.086Z,99645.31
2023-05-18T04:18:58.647Z,99642.91
2023-05-18T04:24:05.058Z,99644.56
2023-05-18T04:29:11.008Z,99650.50
2023-05-18T04:34:17.977Z,99654.22
2023-05-18T04:39:23.654Z,99653.38
2023-05-18T04:44:29.501Z,99640.19
2023-05-18T04:49:33.368Z,99638.47
2023-05-18T04:54:37.251Z,99646.09
2023-05-18T04:59:42.754Z,99642.31
2023-05-18T05:04:46.982Z,99643.28
2023-05-18T05:09:50.546Z,99638.50
2023-05-18T05:14:55.609Z,99640.09
2023-05-18T05:19:59.186Z,99642.53
2023-05-18T05:25:04.503Z,99644.38
2023-05-18T05:30:11.889Z,99642.75
2023-05-18T05:35:15.553Z,99638.53
2023-05-18T05:40:19.298Z,99650.47
2023-05-18T05:45:25.963Z,99639.72
2023-05-18T05:50:29.633Z,99641.28
2023-05-18T05:55:33.429Z,99620.81
2023-05-18T06:00:38.548Z,99631.72
2023-05-18T06:05:42.097Z,99639.47
2023-05-18T06:10:45.638Z,99630.44
2023-05-18T06:15:50.771Z,99630.63
2023-05-18T06:20:54.402Z,99629.41
2023-05-18T06:25:57.948Z,99630.47
2023-05-18T06:31:03.009Z,99625.38
2023-05-18T06:36:07.136Z,99638.22
2023-05-18T06:41:10.644Z,99637.69
2023-05-18T06:46:22.455Z,99638.47
2023-05-18T06:51:26.004Z,99644.94
2023-05-18T06:56:29.643Z,99635.06
2023-05-18T07:01:34.646Z,99625.78
2023-05-18T07:06:38.591Z,99636.63
2023-05-18T07:11:42.373Z,99640.09
2023-05-18T07:16:52.486Z,99622.59
2023-05-18T07:21:56.994Z,99636.75
2023-05-18T07:27:00.996Z,99635.94
2023-05-18T07:32:06.642Z,99631.38
2023-05-18T07:37:10.200Z,99627.69
2023-05-18T07:42:13.737Z,99624.00
2023-05-18T07:47:19.408Z,99622.78
2023-05-18T07:52:22.978Z,99606.31
2023-05-18T07:57:27.210Z,99614.09
2023-05-18T08:02:34.012Z,99608.06
2023-05-18T08:07:37.988Z,99611.16
2023-05-18T08:12:41.646Z,99611.34
2023-05-18T08:17:47.613Z,99612.25
2023-05-18T08:22:51.179Z,99613.44
2023-05-18T08:27:55.136Z,99578.00
2023-05-18T08:33:00.157Z,99590.44
2023-05-18T08:38:05.682Z,99598.72
2023-05-18T08:43:19.277Z,99575.91
2023-05-18T08:48:27.876Z,99582.69
2023-05-18T08:53:33.990Z,99586.66
2023-05-18T08:58:45.638Z,99590.19
2023-05-18T09:03:51.820Z,99593.25
2023-05-18T09:08:57.376Z,99586.22
2023-05-18T09:14:01.913Z,99584.22
2023-05-18T09:19:07.318Z,99570.56
2023-05-18T09:24:11.895Z,99578.50
2023-05-18T09:29:19.277Z,99578.78
2023-05-18T09:34:24.798Z,99580.84
2023-05-18T09:39:28.423Z,99573.97
2023-05-18T09:44:33.389Z,99569.97
2023-05-18T09:49:38.986Z,99540.66
2023-05-18T09:54:42.596Z,99569.13
2023-05-18T09:59:46.439Z,99559.81
2023-05-18T10:04:51.617Z,99559.22
2023-05-18T10:10:05.845Z,99558.66
2023-05-18T10:15:12.138Z,99554.31
2023-05-18T10:20:20.104Z,99554.09
2023-05-18T10:25:27.271Z,99559.91
2023-05-18T10:30:32.642Z,99553.34
2023-05-18T10:35:39.938Z,99559.50
2023-05-18T10:40:45.180Z,99549.84
2023-05-18T10:45:52.927Z,99539.47
2023-05-18T10:50:58.945Z,99551.25
2023-05-18T10:56:03.281Z,99545.28
2023-05-18T11:01:10.862Z,99542.59
2023-05-18T11:06:25.806Z,99538.28
2023-05-18T11:11:30.394Z,99532.00
2023-05-18T11:16:35.634Z,99529.16
2023-05-18T11:21:56.293Z,99537.44
2023-05-18T11:27:03.724Z,99533.94
2023-05-18T11:32:30.125Z,99535.69
2023-05-18T11:37:51.659Z,99535.41
2023-05-18T11:43:00.205Z,99530.84
2023-05-18T11:48:04.250Z,99523.13
2023-05-18T11:53:17.463Z,99527.06
2023-05-18T11:58:21.556Z,99519.53
2023-05-18T12:03:26.145Z,99527.06
2023-05-18T12:08:31.413Z,99524.13
2023-05-18T12:13:35.457Z,99527.91
2023-05-18T12:18:40.394Z,99527.00
2023-05-18T12:23:45.746Z,99526.13
2023-05-18T12:28:49.246Z,99507.88
2023-05-18T12:33:53.859Z,99517.09
2023-05-18T12:38:58.761Z,99511.28
2023-05-18T12:44:02.612Z,99519.09
2023-05-18T12:49:07.182Z,99521.66
2023-05-18T12:54:12.103Z,99512.53
2023-05-18T12:59:19.413Z,99497.34
2023-05-18T13:04:23.753Z,99513.41
2023-05-18T13:09:28.630Z,99505.72
2023-05-18T13:14:33.182Z,99521.53
2023-05-18T13:19:37.021Z,99518.59
2023-05-18T13:24:42.951Z,99513.75
2023-05-18T13:29:46.387Z,99520.06
2023-05-18T13:34:49.576Z,99529.41
2023-05-18T13:39:54.433Z,99527.28
2023-05-18T13:44:57.902Z,99527.06
2023-05-18T13:50:01.381Z,99530.16
2023-05-18T13:55:09.062Z,99534.03
2023-05-18T14:00:14.707Z,99553.00
2023-05-18T14:05:18.223Z,99551.16
2023-05-18T14:10:23.081Z,99552.81
2023-05-18T14:15:26.512Z,99550.47
2023-05-18T14:20:30.919Z,99549.63
2023-05-18T14:25:37.169Z,99555.50
2023-05-18T14:30:40.958Z,99563.84
2023-05-18T14:35:44.506Z,99559.38
2023-05-18T14:40:49.598Z,99566.97
2023-05-18T14:46:04.335Z,99568.81
2023-05-18T14:51:11.440Z,99573.81
2023-05-18T14:56:16.299Z,99569.78
2023-05-18T15:01:19.896Z,99576.31
2023-05-18T15:06:23.476Z,99567.13
2023-05-18T15:11:28.403Z,99572.13
2023-05-18T15:16:32.216Z,99562.94
2023-05-18T15:21:35.716Z,99575.94
2023-05-18T15:26:41.029Z,99580.53
2023-05-18T15:31:44.491Z,99571.00
2023-05-18T15:36:48.831Z,99582.06
2023-05-18T15:41:53.677Z,99584.41
2023-05-18T15:46:57.113Z,99585.00
2023-05-18T15:52:00.956Z,99579.84
2023-05-18T15:57:06.480Z,99588.94
2023-05-18T16:02:09.957Z,99592.31
2023-05-18T16:07:15.002Z,99598.38
2023-05-18T16:12:19.832Z,99599.63
2023-05-18T16:17:23.347Z,99602.16
2023-05-18T16:22:26.895Z,99609.59
2023-05-18T16:27:31.882Z,99603.09
2023-05-18T16:32:35.568Z,99610.78
2023-05-18T16:37:39.314Z,99614.81
2023-05-18T16:42:47.474Z,99616.94
2023-05-18T16:47:51.095Z,99621.84
2023-05-18T16:52:54.528Z,99626.00
2023-05-18T16:57:59.608Z,99632.50
2023-05-18T17:03:04.454Z,99638.19
2023-05-18T17:08:08.004Z,99636.84
2023-05-18T17:13:12.876Z,99642.72
2023-05-18T17:18:16.592Z,99648.47
2023-05-18T17:23:20.153Z,99639.31
2023-05-18T17:28:25.071Z,99638.47
2023-05-18T17:33:28.495Z,99652.59
2023-05-18T17:38:32.180Z,99655.56
2023-05-18T17:43:37.796Z,99654.84
2023-05-18T17:48:41.281Z,99657.16
2023-05-18T17:53:44.728Z,99664.00
2023-05-18T17:58:49.584Z,99657.84
2023-05-18T18:03:53.408Z,99665.69
2023-05-18T18:08:58.810Z,99670.41
2023-05-18T18:14:03.833Z,99677.06
2023-05-18T18:19:08.958Z,99682.97
2023-05-18T18:24:14.101Z,99660.59
2023-05-18T18:29:19.027Z,99681.44
2023-05-18T18:34:22.627Z,99688.59
2023-05-18T18:39:26.354Z,99686.97
2023-05-18T18:44:31.283Z,99685.59
2023-05-18T18:49:34.941Z,99686.72
2023-05-18T18:54:38.528Z,99672.22
2023-05-18T18:59:43.458Z,99689.59
2023-05-18T19:04:46.970Z,99688.84
2023-05-18T19:09:50.712Z,99689.19
2023-05-18T19:14:55.815Z,99690.84
2023-05-18T19:19:59.391Z,99690.81
2023-05-18T19:25:02.983Z,99696.56
2023-05-18T19:30:11.539Z,99681.75
2023-05-18T19:35:15.330Z,99704.94
2023-05-18T19:40:19.667Z,99699.47
2023-05-18T19:45:25.350Z,99700.03
2023-05-18T19:50:28.974Z,99703.44
2023-05-18T19:55:32.653Z,99714.56
2023-05-18T20:00:38.628Z,99709.66
2023-05-18T20:05:43.906Z,99713.25
2023-05-18T20:10:47.833Z,99714.59
2023-05-18T20:15:52.859Z,99712.69
2023-05-18T20:20:57.729Z,99704.31
2023-05-18T20:26:01.333Z,99707.09
2023-05-18T20:31:06.404Z,99715.59
2023-05-18T20:36:10.185Z,99702.63
2023-05-18T20:41:13.802Z,99711.31
2023-05-18T20:46:25.067Z,99720.06
2023-05-18T20:51:28.720Z,99711.59
2023-05-18T20:56:32.327Z,99703.31
2023-05-18T21:01:39.298Z,99702.72
2023-05-18T21:06:44.104Z,99714.72
2023-05-18T21:11:47.933Z,99705.31
2023-05-18T21:16:53.719Z,99712.06
2023-05-18T21:21:57.297Z,99712.50
2023-05-18T21:27:01.395Z,99720.50
2023-05-18T21:32:06.675Z,99719.78
2023-05-18T21:37:10.293Z,99719.97
2023-05-18T21:42:13.861Z,99712.25
2023-05-18T21:47:18.868Z,99720.09
2023-05-18T21:52:22.412Z,99734.31
2023-05-18T21:57:26.058Z,99730.03
2023-05-18T22:02:31.045Z,99739.69
2023-05-18T22:07:34.601Z,99732.19
2023-05-18T22:12:40.521Z,99735.03
2023-05-18T22:17:46.267Z,99743.78
2023-05-18T22:22:49.890Z,99744.88
2023-05-18T22:27:53.713Z,99741.69
2023-05-18T22:32:58.735Z,99749.75
2023-05-18T22:38:02.290Z,99749.84
2023-05-18T22:43:06.656Z,99758.78
2023-05-18T22:48:11.587Z,99764.06
2023-05-18T22:53:15.149Z,99750.22
2023-05-18T22:58:18.738Z,99754.88
2023-05-18T23:03:24.056Z,99754.94
2023-05-18T23:08:27.748Z,99761.22
2023-05-18T23:13:33.132Z,99762.56
2023-05-18T23:18:38.944Z,99761.75
2023-05-18T23:23:42.559Z,99762.59
2023-05-18T23:28:46.029Z,99765.38
2023-05-18T23:33:51.615Z,99757.50
2023-05-18T23:38:59.168Z,99761.03
2023-05-18T23:44:03.362Z,99766.59
2023-05-18T23:49:09.640Z,99769.38
2023-05-18T23:54:13.884Z,99767.00
2023-05-18T23:59:17.994Z,99773.22
